Time;durP1;ratioP1;P1;durP2;ratioP2;P2;SDS_P1;SDS_P2;PMS_P1;PMS_P2;Temp;Humidity;BMP_temperature;BMP_pressure;BME280_temperature;BME280_humidity;BME280_pressure;Samples;Min_cycle;Max_cycle;Signal;HPM_P1;HPM_P2
2023/06/12 00:01:40;;;;;;;2.80;1.33;;;;;;;15.47;53.57;102391.28;5116421;28;20027;-66
2023/06/12 00:04:06;;;;;;;1.83;1.33;;;;;;;15.42;53.34;102393.69;5118168;28;20020;-66
2023/06/12 00:06:37;;;;;;;2.60;1.33;;;;;;;15.45;53.71;102393.31;5118174;28;20391;-65
2023/06/12 00:09:04;;;;;;;3.78;1.73;;;;;;;15.31;53.68;102379.81;5119370;28;20043;-65
2023/06/12 00:11:29;;;;;;;2.78;1.60;;;;;;;15.43;53.73;102403.53;5120029;28;20421;-65
2023/06/12 00:13:55;;;;;;;2.97;1.60;;;;;;;15.43;53.98;102406.25;5100760;28;20061;-66
2023/06/12 00:16:21;;;;;;;4.95;1.70;;;;;;;15.47;54.18;102410.25;5114344;28;20028;-65
2023/06/12 00:18:48;;;;;;;3.50;1.60;;;;;;;15.48;54.65;102425.50;5116677;28;20073;-66
2023/06/12 00:21:14;;;;;;;5.50;2.08;;;;;;;15.55;54.51;102419.31;5115924;28;20317;-66
2023/06/12 00:23:40;;;;;;;1.95;1.58;;;;;;;15.73;54.91;102426.00;5119249;28;20027;-66
2023/06/12 00:26:06;;;;;;;4.28;2.10;;;;;;;15.81;55.08;102407.91;5100582;28;20488;-65
2023/06/12 00:28:32;;;;;;;5.72;2.15;;;;;;;16.09;55.24;102427.81;5114434;28;20031;-65
2023/06/12 00:30:58;;;;;;;3.17;1.95;;;;;;;16.18;56.32;102431.19;5118972;28;20120;-65
2023/06/12 00:33:24;;;;;;;8.13;2.20;;;;;;;16.26;56.75;102422.06;5118908;28;20159;-65
2023/06/12 00:35:51;;;;;;;5.68;2.15;;;;;;;16.33;57.36;102431.94;5119039;28;20032;-66
2023/06/12 00:38:16;;;;;;;6.07;2.25;;;;;;;16.29;57.80;102414.38;5115729;28;20052;-66
2023/06/12 00:40:42;;;;;;;9.18;2.58;;;;;;;16.46;58.29;102439.38;5116039;28;20076;-66
2023/06/12 00:43:09;;;;;;;4.22;2.28;;;;;;;16.49;58.53;102446.25;5115438;28;20031;-66
2023/06/12 00:45:35;;;;;;;6.90;1.92;;;;;;;16.35;58.54;102426.31;5098915;28;20084;-66
2023/06/12 00:48:01;;;;;;;3.90;2.05;;;;;;;16.52;58.82;102443.13;5117165;28;20080;-66
2023/06/12 00:50:27;;;;;;;4.63;1.92;;;;;;;16.53;59.32;102450.28;5115415;28;20433;-66
2023/06/12 00:52:54;;;;;;;4.25;2.15;;;;;;;16.52;59.07;102446.69;5116296;28;20060;-65
2023/06/12 00:55:20;;;;;;;8.38;2.00;;;;;;;16.47;59.49;102448.34;5115328;28;20031;-66
2023/06/12 00:57:47;;;;;;;5.18;2.03;;;;;;;16.54;59.58;102451.94;5115754;28;20032;-66
2023/06/12 01:00:14;;;;;;;6.28;2.35;;;;;;;16.52;59.71;102449.41;5117092;28;20034;-65
2023/06/12 01:03:05;;;;;;;4.53;2.00;;;;;;;16.45;60.00;102438.50;5116882;28;20040;-65
2023/06/12 01:05:42;;;;;;;6.55;1.80;;;;;;;16.53;60.70;102453.00;5116999;28;20056;-65
2023/06/12 01:08:32;;;;;;;4.25;1.98;;;;;;;16.52;61.03;102448.56;5113027;28;20019;-65
2023/06/12 01:11:05;;;;;;;5.93;2.30;;;;;;;16.48;61.06;102445.41;5113564;28;20024;-65
2023/06/12 01:13:31;;;;;;;4.78;2.03;;;;;;;16.44;61.83;102442.25;5113572;28;20132;-66
2023/06/12 01:15:56;;;;;;;6.30;2.33;;;;;;;16.41;62.02;102444.53;5116651;28;20030;-66
2023/06/12 01:18:22;;;;;;;4.35;1.73;;;;;;;16.39;62.78;102450.19;5118082;28;20160;-66
2023/06/12 01:20:55;;;;;;;6.40;2.10;;;;;;;16.39;63.36;102438.44;5099776;28;20047;-65
2023/06/12 01:23:39;;;;;;;4.47;2.10;;;;;;;16.36;63.60;102450.56;5118358;28;20024;-66
2023/06/12 01:26:25;;;;;;;7.28;2.05;;;;;;;16.23;64.33;102434.19;5118618;28;20016;-66
2023/06/12 01:29:09;;;;;;;3.88;2.13;;;;;;;16.41;65.02;102452.69;5118101;28;20047;-65
2023/06/12 01:31:56;;;;;;;8.00;2.80;;;;;;;16.37;65.47;102452.25;5116768;28;20027;-65
2023/06/12 01:34:32;;;;;;;9.57;2.42;;;;;;;16.43;66.21;102453.34;5115599;28;20027;-66
2023/06/12 01:37:31;;;;;;;2.80;2.13;;;;;;;16.39;66.62;102466.47;5114687;28;20428;-65
2023/06/12 01:39:58;;;;;;;5.13;2.25;;;;;;;16.34;67.16;102449.91;5112067;28;20046;-66
2023/06/12 01:42:26;;;;;;;6.00;2.30;;;;;;;16.36;67.54;102452.47;5114436;28;20024;-66
2023/06/12 01:44:52;;;;;;;5.45;2.40;;;;;;;16.36;68.14;102450.56;5116824;28;20019;-66
2023/06/12 01:47:18;;;;;;;5.45;2.30;;;;;;;16.41;68.09;102447.25;5116317;28;20027;-66
2023/06/12 01:49:44;;;;;;;6.95;2.25;;;;;;;16.32;67.98;102432.97;5116207;28;20038;-66
2023/06/12 01:52:09;;;;;;;4.47;2.10;;;;;;;16.51;68.08;102450.47;5098002;28;20027;-65
2023/06/12 01:54:35;;;;;;;6.53;2.72;;;;;;;16.49;67.98;102444.41;5115475;28;20093;-66
2023/06/12 01:57:01;;;;;;;4.68;2.50;;;;;;;16.59;67.99;102455.75;5098307;28;20031;-66
2023/06/12 01:59:26;;;;;;;6.07;2.30;;;;;;;16.62;67.94;102454.50;5116123;28;20560;-65
2023/06/12 02:01:51;;;;;;;4.35;2.08;;;;;;;16.64;67.59;102455.97;5116098;28;20035;-65
2023/06/12 02:04:18;;;;;;;4.43;2.20;;;;;;;16.60;66.85;102443.00;5116689;28;20042;-66
2023/06/12 02:06:44;;;;;;;6.30;2.00;;;;;;;16.70;66.69;102450.81;5120138;28;20020;-65
2023/06/12 02:09:10;;;;;;;2.95;1.80;;;;;;;16.69;66.13;102455.41;5120564;27;20056;-66
2023/06/12 02:11:35;;;;;;;4.88;1.77;;;;;;;16.74;65.73;102454.78;5119974;28;20197;-66
2023/06/12 02:14:01;;;;;;;5.68;2.00;;;;;;;16.05;65.23;102355.88;5118724;28;20096;-66
2023/06/12 02:16:27;;;;;;;7.15;1.70;;;;;;;16.75;64.49;102460.06;5119818;28;20031;-70
2023/06/12 02:18:53;;;;;;;4.95;1.80;;;;;;;16.64;64.21;102447.81;5101470;28;20035;-66
2023/06/12 02:21:18;;;;;;;3.22;1.80;;;;;;;16.62;64.19;102449.94;5119226;28;20078;-65
2023/06/12 02:23:44;;;;;;;3.65;1.60;;;;;;;16.75;63.78;102468.19;5119199;28;20433;-65
2023/06/12 02:26:09;;;;;;;3.20;1.67;;;;;;;16.76;64.33;102464.47;5116760;28;20032;-65
2023/06/12 02:28:35;;;;;;;2.45;1.73;;;;;;;16.76;64.19;102467.19;5119811;28;20485;-66
2023/06/12 02:31:00;;;;;;;6.82;1.67;;;;;;;16.82;64.55;102469.13;5117737;28;20294;-65
2023/06/12 02:33:27;;;;;;;4.43;1.52;;;;;;;16.81;64.43;102472.84;5117856;28;20024;-65
2023/06/12 02:35:53;;;;;;;2.63;1.50;;;;;;;16.83;64.63;102469.94;5117580;28;20390;-65
2023/06/12 02:38:18;;;;;;;4.88;1.70;;;;;;;17.06;64.15;102465.06;5117080;28;20027;-65
2023/06/12 02:40:44;;;;;;;5.28;1.80;;;;;;;17.42;63.10;102463.94;5118230;28;20476;-66
2023/06/12 02:43:09;;;;;;;4.18;1.90;;;;;;;17.75;62.05;102461.31;5118139;28;20491;-65
2023/06/12 02:45:35;;;;;;;4.47;1.88;;;;;;;18.01;60.94;102455.09;5100164;28;20024;-65
2023/06/12 02:48:00;;;;;;;3.80;1.80;;;;;;;18.18;59.75;102443.75;5114755;28;20031;-65
2023/06/12 02:50:26;;;;;;;4.95;1.75;;;;;;;18.53;58.61;102458.00;5117608;28;20024;-66
2023/06/12 02:52:52;;;;;;;4.35;1.88;;;;;;;18.76;57.40;102461.13;5117674;28;20028;-66
2023/06/12 02:55:18;;;;;;;3.58;1.60;;;;;;;18.95;56.13;102443.03;5118541;28;20115;-66
2023/06/12 02:57:44;;;;;;;3.55;1.63;;;;;;;19.32;54.26;102461.59;5119071;28;20027;-66
2023/06/12 03:00:11;;;;;;;4.70;1.70;;;;;;;19.65;52.60;102456.81;5117433;28;20042;-66
2023/06/12 03:02:42;;;;;;;2.67;1.45;;;;;;;19.97;51.00;102464.16;5117985;28;20043;-65
2023/06/12 03:05:16;;;;;;;2.40;1.60;;;;;;;20.23;49.17;102460.38;5117400;28;20028;-66
2023/06/12 03:07:43;;;;;;;5.75;1.70;;;;;;;20.38;47.68;102439.84;5101854;28;20032;-65
2023/06/12 03:10:09;;;;;;;6.07;1.45;;;;;;;20.69;46.64;102450.94;5117180;28;20032;-66
2023/06/12 03:12:35;;;;;;;3.72;1.50;;;;;;;20.88;45.28;102455.34;5100005;28;20050;-65
2023/06/12 03:15:02;;;;;;;3.42;1.42;;;;;;;21.11;43.91;102460.97;5118034;28;20136;-66
2023/06/12 03:17:28;;;;;;;3.58;1.33;;;;;;;21.44;42.86;102458.91;5117039;28;20088;-66
2023/06/12 03:19:53;;;;;;;3.20;1.55;;;;;;;21.74;41.77;102453.41;5118227;28;20027;-66
2023/06/12 03:22:19;;;;;;;2.30;1.45;;;;;;;21.92;41.08;102450.63;5118153;28;20055;-66
2023/06/12 03:24:44;;;;;;;2.75;1.50;;;;;;;22.07;40.19;102458.38;5099932;28;20023;-65
2023/06/12 03:27:10;;;;;;;3.97;1.30;;;;;;;22.25;39.68;102457.47;5117580;28;20108;-65
2023/06/12 03:29:36;;;;;;;3.08;1.63;;;;;;;22.66;38.89;102451.03;5116125;28;20024;-66
2023/06/12 03:32:01;;;;;;;3.55;1.50;;;;;;;22.82;38.46;102449.47;5116915;28;20032;-65
2023/06/12 03:34:26;;;;;;;4.50;1.67;;;;;;;23.10;37.91;102453.38;5117047;28;20084;-66
2023/06/12 03:36:52;;;;;;;3.78;1.55;;;;;;;23.33;37.34;102449.72;5117238;28;20035;-65
2023/06/12 03:39:18;;;;;;;2.00;1.30;;;;;;;23.57;36.86;102450.44;5116956;28;20509;-65
2023/06/12 03:41:57;;;;;;;2.17;1.40;;;;;;;23.86;36.09;102462.25;5118366;28;20031;-66
2023/06/12 03:44:23;;;;;;;4.40;1.42;;;;;;;24.02;35.95;102468.88;5117255;28;20073;-66
2023/06/12 03:46:48;;;;;;;2.50;1.50;;;;;;;24.17;35.49;102460.84;5117972;28;20069;-66
2023/06/12 03:49:14;;;;;;;4.10;1.50;;;;;;;24.44;34.97;102462.97;5116559;28;20035;-66
2023/06/12 03:51:40;;;;;;;4.78;1.75;;;;;;;24.71;34.44;102472.19;5099907;28;20023;-66
2023/06/12 03:54:07;;;;;;;4.85;1.65;;;;;;;24.91;34.30;102459.78;5115864;28;20411;-66
2023/06/12 03:56:33;;;;;;;2.35;1.50;;;;;;;25.09;33.80;102462.19;5115871;28;20031;-66
2023/06/12 03:59:00;;;;;;;5.18;1.70;;;;;;;25.20;33.42;102463.19;5117561;28;20035;-66
2023/06/12 04:01:26;;;;;;;2.45;1.70;;;;;;;25.41;33.25;102458.75;5117715;28;20031;-65
2023/06/12 04:03:51;;;;;;;2.33;1.50;;;;;;;25.50;32.80;102465.47;5118158;27;20510;-65
2023/06/12 04:06:17;;;;;;;4.35;1.40;;;;;;;25.47;32.30;102452.22;5117454;28;20103;-66
2023/06/12 04:08:44;;;;;;;2.83;1.40;;;;;;;25.63;31.94;102453.19;5117957;28;20084;-66
2023/06/12 04:11:14;;;;;;;4.63;1.50;;;;;;;25.74;31.38;102441.19;5115991;28;20041;-66
2023/06/12 04:13:39;;;;;;;4.03;1.60;;;;;;;26.02;31.02;102445.56;5117665;28;20450;-66
2023/06/12 04:16:05;;;;;;;5.03;1.45;;;;;;;26.19;31.03;102437.16;5115540;28;20067;-66
2023/06/12 04:18:30;;;;;;;5.68;1.60;;;;;;;26.46;30.32;102445.34;5116809;28;20034;-66
2023/06/12 04:20:57;;;;;;;4.05;1.60;;;;;;;26.44;30.12;102447.53;5117407;28;20094;-66
2023/06/12 04:23:29;;;;;;;5.93;1.40;;;;;;;26.33;30.51;102454.94;5116232;28;20502;-65
2023/06/12 04:26:01;;;;;;;7.28;1.80;;;;;;;26.34;30.40;102456.59;5116019;28;20479;-66
2023/06/12 04:28:28;;;;;;;7.82;1.80;;;;;;;26.54;30.21;102455.91;5115570;28;20131;-66
2023/06/12 04:30:54;;;;;;;6.15;1.50;;;;;;;26.84;29.61;102451.66;5123401;28;20035;-67
2023/06/12 04:33:20;;;;;;;4.40;1.70;;;;;;;27.05;29.34;102447.91;5134101;28;20055;-72
2023/06/12 04:35:46;;;;;;;3.10;1.60;;;;;;;27.03;29.47;102452.84;5134873;28;20019;-66
2023/06/12 04:38:12;;;;;;;12.95;2.05;;;;;;;27.32;29.10;102439.44;5135295;28;20042;-67
2023/06/12 04:40:37;;;;;;;11.05;1.83;;;;;;;27.06;29.12;102444.03;5132328;28;20035;-64
2023/06/12 04:43:05;;;;;;;9.40;1.90;;;;;;;26.97;29.28;102448.41;5116816;28;20555;-66
2023/06/12 04:45:32;;;;;;;5.05;1.60;;;;;;;26.75;28.91;102447.75;5115633;28;20402;-66
2023/06/12 04:47:57;;;;;;;8.30;2.13;;;;;;;26.66;28.93;102447.44;5116829;28;20038;-65
2023/06/12 04:50:23;;;;;;;8.02;2.00;;;;;;;26.49;29.07;102442.09;5112979;28;20027;-65
2023/06/12 04:52:50;;;;;;;16.90;1.95;;;;;;;26.53;29.09;102450.69;5114095;28;20027;-65
2023/06/12 04:55:20;;;;;;;9.00;1.98;;;;;;;26.63;29.15;102448.81;5116420;28;20106;-65
2023/06/12 04:57:47;;;;;;;9.45;1.60;;;;;;;26.74;28.59;102443.31;5115340;28;20038;-66
2023/06/12 05:00:15;;;;;;;12.35;1.90;;;;;;;26.48;28.79;102451.47;5113479;28;20059;-66
2023/06/12 05:02:41;;;;;;;11.15;2.15;;;;;;;26.58;28.75;102440.47;5113978;28;20034;-66
2023/06/12 05:05:07;;;;;;;13.50;2.05;;;;;;;26.65;28.56;102448.53;5092639;28;20063;-66
2023/06/12 05:07:35;;;;;;;11.93;2.00;;;;;;;26.16;28.89;102444.06;5113875;28;20606;-66
2023/06/12 05:10:01;;;;;;;14.45;2.22;;;;;;;26.00;29.03;102450.53;5113454;28;20051;-66
2023/06/12 05:12:26;;;;;;;13.70;2.30;;;;;;;25.70;29.36;102451.91;5115272;28;20511;-66
2023/06/12 05:14:52;;;;;;;12.38;1.98;;;;;;;25.53;29.28;102451.19;5116071;28;20024;-66
2023/06/12 05:17:17;;;;;;;16.52;2.15;;;;;;;25.28;29.67;102447.03;5116534;28;20526;-67
2023/06/12 05:19:43;;;;;;;13.18;2.03;;;;;;;24.28;30.40;102429.69;5114945;28;20039;-67
2023/06/12 05:22:09;;;;;;;13.82;1.73;;;;;;;23.51;31.39;102435.78;5113702;28;20052;-66
2023/06/12 05:24:35;;;;;;;11.25;1.75;;;;;;;24.18;30.65;102443.28;5116053;28;20043;-66
2023/06/12 05:27:01;;;;;;;4.55;1.80;;;;;;;23.76;31.02;102443.69;5114884;28;20110;-66
2023/06/12 05:29:26;;;;;;;11.48;1.95;;;;;;;23.68;31.15;102444.09;5120729;28;20031;-66
2023/06/12 05:31:52;;;;;;;9.82;1.98;;;;;;;23.13;31.38;102434.50;5125097;28;20027;-66
2023/06/12 05:34:18;;;;;;;16.73;2.00;;;;;;;23.21;31.57;102434.13;5118725;28;20038;-66
2023/06/12 05:36:43;;;;;;;8.93;2.45;;;;;;;23.34;31.17;102430.22;5116766;28;20032;-66
2023/06/12 05:39:09;;;;;;;4.05;1.58;;;;;;;23.30;31.27;102434.53;5122809;28;20043;-66
2023/06/12 05:41:34;;;;;;;9.88;1.95;;;;;;;22.97;31.41;102438.81;5119708;28;20527;-66
2023/06/12 05:44:01;;;;;;;5.55;1.50;;;;;;;23.44;31.17;102435.94;5117877;28;20099;-66
2023/06/12 05:46:27;;;;;;;4.32;1.35;;;;;;;23.04;31.44;102435.94;5118277;28;20023;-66
2023/06/12 05:48:57;;;;;;;3.15;1.27;;;;;;;22.81;31.41;102414.00;5119466;28;20118;-66
2023/06/12 05:51:23;;;;;;;3.85;1.40;;;;;;;23.34;31.24;102432.97;5119735;28;20041;-66
2023/06/12 05:53:48;;;;;;;6.75;1.50;;;;;;;23.44;30.83;102435.09;5119510;28;20024;-66
2023/06/12 05:56:14;;;;;;;6.20;1.50;;;;;;;23.26;30.83;102438.88;5119462;28;20035;-67
2023/06/12 05:58:43;;;;;;;6.97;1.23;;;;;;;23.55;30.58;102441.63;5115448;28;20031;-66
2023/06/12 06:01:11;;;;;;;5.75;1.50;;;;;;;23.66;30.42;102426.97;5117515;28;20045;-66
2023/06/12 06:03:42;;;;;;;5.20;1.70;;;;;;;23.77;30.16;102433.50;5118342;28;20473;-66
2023/06/12 06:06:08;;;;;;;3.97;1.30;;;;;;;23.72;30.05;102434.28;5117980;28;20028;-66
2023/06/12 06:08:34;;;;;;;4.93;1.35;;;;;;;23.83;30.26;102438.03;5101457;28;20035;-67
2023/06/12 06:11:00;;;;;;;7.97;1.60;;;;;;;23.91;29.75;102434.88;5117119;28;20146;-66
2023/06/12 06:13:25;;;;;;;6.30;1.50;;;;;;;23.78;29.66;102419.53;5117998;28;20036;-66
2023/06/12 06:15:51;;;;;;;5.60;1.30;;;;;;;23.89;29.58;102440.59;5122540;28;20047;-67
2023/06/12 06:18:17;;;;;;;7.45;1.33;;;;;;;24.04;29.29;102430.94;5128481;28;20100;-70
2023/06/12 06:20:42;;;;;;;6.93;1.40;;;;;;;24.17;29.27;102435.28;5121322;28;20055;-67
2023/06/12 06:23:08;;;;;;;9.65;1.63;;;;;;;24.46;29.26;102442.34;5118608;28;20028;-67
2023/06/12 06:25:35;;;;;;;4.95;1.38;;;;;;;23.72;29.39;102434.28;5121292;28;20365;-68
2023/06/12 06:28:00;;;;;;;4.43;1.40;;;;;;;23.74;29.65;102434.88;5123844;28;20024;-66
2023/06/12 06:30:25;;;;;;;7.95;1.80;;;;;;;24.20;29.30;102438.34;5121720;28;20024;-66
2023/06/12 06:32:51;;;;;;;6.63;1.55;;;;;;;24.67;28.99;102437.13;5117269;28;20031;-66
2023/06/12 06:35:16;;;;;;;4.47;1.50;;;;;;;24.78;28.96;102439.78;5119368;28;20042;-66
2023/06/12 06:37:42;;;;;;;4.72;1.40;;;;;;;25.06;28.64;102429.66;5102703;28;20355;-67
2023/06/12 06:40:09;;;;;;;2.88;1.40;;;;;;;25.42;28.16;102438.38;5121165;28;20028;-67
2023/06/12 06:42:34;;;;;;;8.10;1.50;;;;;;;24.38;28.83;102432.59;5121719;27;20031;-66
2023/06/12 06:45:00;;;;;;;8.32;1.70;;;;;;;24.30;29.02;102441.25;5120320;28;20043;-67
2023/06/12 06:47:25;;;;;;;12.07;2.05;;;;;;;24.35;29.10;102441.34;5101762;28;20063;-66
2023/06/12 06:49:51;;;;;;;5.25;1.40;;;;;;;24.54;28.50;102438.38;5118869;28;20020;-67
2023/06/12 06:52:22;;;;;;;2.90;1.33;;;;;;;24.56;28.09;102444.44;5119082;28;20125;-66
2023/06/12 06:54:47;;;;;;;5.18;1.40;;;;;;;24.06;28.96;102431.53;5115422;28;20024;-66
2023/06/12 06:57:13;;;;;;;7.22;1.40;;;;;;;24.53;28.66;102442.19;5119188;27;20377;-67
2023/06/12 06:59:38;;;;;;;6.90;1.63;;;;;;;24.65;28.21;102442.91;5118753;28;20027;-67
2023/06/12 07:02:04;;;;;;;6.88;1.50;;;;;;;24.57;28.38;102440.63;5119762;28;20103;-67
2023/06/12 07:04:30;;;;;;;6.10;1.60;;;;;;;24.20;28.41;102432.84;5135620;28;20000;-66
2023/06/12 07:06:55;;;;;;;3.72;1.50;;;;;;;24.31;28.29;102440.19;5122925;28;20434;-66
2023/06/12 07:09:21;;;;;;;4.90;1.60;;;;;;;24.80;28.26;102447.78;5119079;28;20028;-67
2023/06/12 07:11:46;;;;;;;4.35;1.48;;;;;;;25.17;28.02;102426.00;5117571;28;20035;-67
2023/06/12 07:14:12;;;;;;;5.78;1.65;;;;;;;25.25;27.71;102431.03;5118208;28;20055;-67
2023/06/12 07:16:37;;;;;;;7.15;1.70;;;;;;;25.29;28.30;102434.09;5118206;28;20031;-67
2023/06/12 07:19:03;;;;;;;6.93;1.70;;;;;;;25.10;28.24;102430.84;5116147;28;20034;-67
2023/06/12 07:21:28;;;;;;;6.00;1.65;;;;;;;24.96;28.62;102432.28;5115651;28;20047;-67
2023/06/12 07:23:54;;;;;;;5.00;1.70;;;;;;;24.77;27.84;102407.03;5118673;28;20039;-66
2023/06/12 07:26:19;;;;;;;3.78;1.50;;;;;;;24.51;27.99;102425.94;5102126;28;20028;-66
2023/06/12 07:28:45;;;;;;;7.97;1.80;;;;;;;24.98;27.39;102421.88;5119799;28;20077;-67
2023/06/12 07:31:10;;;;;;;5.72;1.67;;;;;;;24.50;27.62;102417.91;5118954;28;20499;-66
2023/06/12 07:33:36;;;;;;;2.83;1.27;;;;;;;25.04;27.25;102420.84;5120589;28;20030;-67
2023/06/12 07:36:01;;;;;;;4.63;1.40;;;;;;;25.37;26.80;102419.03;5117026;28;20118;-66
2023/06/12 07:38:27;;;;;;;8.90;1.60;;;;;;;25.28;26.50;102421.41;5117570;28;20038;-66
2023/06/12 07:40:52;;;;;;;3.63;1.23;;;;;;;24.41;27.34;102409.28;5120213;28;20043;-67
2023/06/12 07:43:17;;;;;;;4.85;1.60;;;;;;;24.75;27.14;102425.72;5119460;28;20039;-66
2023/06/12 07:45:43;;;;;;;5.30;1.30;;;;;;;24.87;26.58;102412.66;5113380;28;20046;-66
2023/06/12 07:48:08;;;;;;;7.38;1.70;;;;;;;24.18;26.92;102413.03;5113215;27;20035;-66
2023/06/12 07:50:34;;;;;;;3.55;1.33;;;;;;;23.90;27.44;102417.53;5116845;28;20031;-66
2023/06/12 07:53:00;;;;;;;6.93;1.50;;;;;;;24.10;27.39;102413.44;5116582;28;20032;-66
2023/06/12 07:55:26;;;;;;;3.72;1.50;;;;;;;24.26;27.07;102409.00;5117526;28;20031;-66
2023/06/12 07:57:52;;;;;;;3.45;1.30;;;;;;;24.34;26.99;102394.84;5118869;28;20087;-66
2023/06/12 08:00:20;;;;;;;4.72;1.48;;;;;;;23.79;28.03;102396.44;5117640;28;20115;-67
2023/06/12 08:02:54;;;;;;;7.28;1.40;;;;;;;24.28;27.34;102407.69;5116473;28;20016;-67
2023/06/12 08:05:20;;;;;;;4.25;1.20;;;;;;;24.62;27.29;102393.88;5118101;28;20081;-66
2023/06/12 08:07:45;;;;;;;3.22;1.40;;;;;;;25.10;27.18;102408.81;5118071;28;20039;-66
2023/06/12 08:10:11;;;;;;;4.85;1.33;;;;;;;25.41;26.93;102407.22;5116699;28;20028;-67
2023/06/12 08:12:37;;;;;;;4.45;1.30;;;;;;;24.70;26.92;102404.47;5119444;28;20483;-66
2023/06/12 08:15:04;;;;;;;3.55;1.40;;;;;;;24.50;27.11;102412.41;5118213;28;20073;-66
2023/06/12 08:17:29;;;;;;;6.82;1.50;;;;;;;24.33;27.16;102382.16;5120240;28;20031;-67
2023/06/12 08:19:55;;;;;;;1.55;1.27;;;;;;;24.43;26.91;102392.50;5101131;28;20032;-72
2023/06/12 08:22:23;;;;;;;3.47;1.30;;;;;;;24.54;27.22;102399.84;5132453;28;20051;-70
2023/06/12 08:24:48;;;;;;;2.90;1.38;;;;;;;24.81;26.87;102399.91;5116822;28;20035;-67
2023/06/12 08:27:14;;;;;;;4.88;1.35;;;;;;;24.43;27.13;102400.75;5134573;28;20139;-67
2023/06/12 08:29:40;;;;;;;7.13;1.25;;;;;;;24.60;26.93;102388.63;5131197;28;20031;-67
2023/06/12 08:32:07;;;;;;;2.90;1.20;;;;;;;24.88;26.98;102394.22;5134650;28;20007;-69
2023/06/12 08:34:32;;;;;;;5.82;1.20;;;;;;;25.39;26.27;102392.03;5134615;28;20027;-70
2023/06/12 08:36:58;;;;;;;4.18;1.30;;;;;;;25.75;26.24;102371.97;5130769;28;20070;-70
2023/06/12 08:39:24;;;;;;;5.80;1.20;;;;;;;26.01;25.66;102380.47;5123097;28;20074;-66
2023/06/12 08:41:52;;;;;;;4.05;1.30;;;;;;;25.67;25.59;102382.66;5115216;28;20027;-66
2023/06/12 08:44:21;;;;;;;2.22;1.23;;;;;;;25.25;26.08;102375.91;5124194;28;20392;-67
2023/06/12 08:46:49;;;;;;;5.75;1.40;;;;;;;25.27;26.10;102372.94;5132333;28;20053;-67
2023/06/12 08:49:15;;;;;;;4.85;1.50;;;;;;;25.02;26.28;102368.75;5131038;28;20023;-66
2023/06/12 08:51:42;;;;;;;4.32;1.38;;;;;;;25.25;26.25;102369.59;5127914;28;20373;-66
2023/06/12 08:54:09;;;;;;;3.75;1.50;;;;;;;24.84;25.62;102347.91;5120560;28;20047;-67
2023/06/12 08:56:36;;;;;;;4.30;1.60;;;;;;;24.97;26.01;102343.09;5119546;28;20065;-66
2023/06/12 08:59:03;;;;;;;6.75;1.40;;;;;;;25.21;25.83;102349.16;5119602;28;20128;-66
2023/06/12 09:01:31;;;;;;;5.20;1.40;;;;;;;25.67;26.01;102363.38;5099553;28;20034;-67
2023/06/12 09:04:00;;;;;;;2.90;1.30;;;;;;;25.82;25.70;102368.19;5118176;28;20030;-66
2023/06/12 09:06:27;;;;;;;1.95;1.38;;;;;;;25.95;25.30;102353.94;5116849;28;20054;-66
2023/06/12 09:08:52;;;;;;;3.92;1.38;;;;;;;25.55;25.30;102356.09;5113894;28;20084;-66
2023/06/12 09:11:18;;;;;;;4.03;1.38;;;;;;;25.70;25.34;102355.41;5116234;28;20023;-66
2023/06/12 09:13:43;;;;;;;5.15;1.50;;;;;;;25.63;25.43;102354.78;5078046;28;20081;-66
2023/06/12 09:16:13;;;;;;;4.30;1.23;;;;;;;25.40;25.10;102341.38;5096572;28;20029;-66
2023/06/12 09:18:52;;;;;;;3.08;1.30;;;;;;;25.21;25.41;102344.47;5115430;28;20072;-66
2023/06/12 09:21:18;;;;;;;1.95;1.10;;;;;;;25.64;25.63;102347.34;5105246;28;20056;-66
2023/06/12 09:23:45;;;;;;;3.33;1.23;;;;;;;25.29;24.29;102349.50;5117874;28;20032;-67
2023/06/12 09:26:15;;;;;;;4.88;1.15;;;;;;;25.72;24.24;102347.69;5117033;28;20141;-66
2023/06/12 09:28:43;;;;;;;4.85;1.23;;;;;;;25.91;24.48;102339.03;5115768;28;20020;-66
2023/06/12 09:31:09;;;;;;;3.30;1.10;;;;;;;25.83;23.65;102325.72;5114897;28;20403;-67
2023/06/12 09:33:41;;;;;;;5.65;1.48;;;;;;;25.92;23.31;102335.16;5114696;28;20032;-67
2023/06/12 09:36:10;;;;;;;2.38;1.10;;;;;;;25.65;22.51;102343.50;5112426;28;20039;-67
2023/06/12 09:38:35;;;;;;;3.63;1.20;;;;;;;25.85;22.96;102331.81;5114405;28;20031;-67
2023/06/12 09:41:04;;;;;;;1.83;1.27;;;;;;;25.66;23.05;102346.00;5112072;28;20028;-66
2023/06/12 09:43:30;;;;;;;3.35;1.33;;;;;;;26.30;22.78;102338.72;5114660;28;20024;-66
2023/06/12 09:45:58;;;;;;;5.63;1.20;;;;;;;26.79;22.60;102327.34;5116389;28;20044;-66
2023/06/12 09:48:32;;;;;;;3.63;1.10;;;;;;;27.06;21.44;102327.16;5113530;28;20249;-66
2023/06/12 09:50:59;;;;;;;2.83;1.73;;;;;;;27.30;21.05;102330.25;5113019;28;20202;-66
2023/06/12 09:53:26;;;;;;;3.65;1.10;;;;;;;26.91;21.07;102323.25;5115129;28;20036;-68
2023/06/12 09:55:53;;;;;;;4.53;1.20;;;;;;;26.42;20.95;102311.72;5116422;28;20121;-66
2023/06/12 09:58:20;;;;;;;3.08;1.25;;;;;;;26.18;21.20;102314.09;5115616;28;20032;-67
2023/06/12 10:00:46;;;;;;;2.55;1.10;;;;;;;26.58;20.72;102310.72;5114738;28;20216;-66
2023/06/12 10:03:15;;;;;;;3.70;1.30;;;;;;;26.97;20.54;102303.94;5110023;28;20155;-67
2023/06/12 10:05:49;;;;;;;1.00;0.90;;;;;;;26.88;20.57;102298.09;5113676;28;20019;-66
2023/06/12 10:08:18;;;;;;;5.32;1.30;;;;;;;27.40;20.58;102302.63;5113890;28;20019;-66
2023/06/12 10:10:45;;;;;;;3.22;1.17;;;;;;;27.59;19.55;102312.00;5114621;28;20391;-66
2023/06/12 10:13:12;;;;;;;7.28;1.30;;;;;;;27.56;19.12;102307.03;5112890;28;20019;-66
2023/06/12 10:15:39;;;;;;;2.60;1.10;;;;;;;27.39;18.58;102306.50;5113802;28;20172;-66
2023/06/12 10:18:08;;;;;;;1.73;1.08;;;;;;;27.64;17.98;102306.47;5113230;28;20042;-66
2023/06/12 10:20:34;;;;;;;4.07;1.30;;;;;;;27.37;17.50;102305.94;5112432;28;20496;-66
2023/06/12 10:23:02;;;;;;;3.95;1.05;;;;;;;27.76;17.92;102308.97;5115191;28;20027;-66
2023/06/12 10:25:29;;;;;;;2.65;1.23;;;;;;;28.01;17.32;102304.50;5114753;28;20479;-66
2023/06/12 10:27:55;;;;;;;5.20;1.17;;;;;;;28.03;17.25;102297.56;5115252;28;20042;-66
2023/06/12 10:30:21;;;;;;;4.35;1.30;;;;;;;28.20;17.16;102300.00;5118152;28;20058;-67
2023/06/12 10:32:46;;;;;;;2.25;1.50;;;;;;;26.84;30.65;102310.81;5122696;28;20028;-66
2023/06/12 10:35:24;;;;;;;4.13;1.85;;;;;;;26.50;30.52;102300.22;5120875;28;20040;-66
2023/06/12 10:37:51;;;;;;;9.90;1.60;;;;;;;26.20;31.10;102300.88;5120089;28;20019;-66
2023/06/12 10:40:21;;;;;;;5.78;1.65;;;;;;;25.63;33.56;102296.91;5120482;28;20027;-66
2023/06/12 10:42:49;;;;;;;3.45;1.65;;;;;;;25.04;34.40;102292.22;5121506;28;20027;-66
2023/06/12 10:45:20;;;;;;;4.72;1.38;;;;;;;24.61;34.80;102298.63;5118441;28;20027;-66
2023/06/12 10:48:06;;;;;;;3.05;1.50;;;;;;;24.50;35.52;102299.59;5120044;28;20031;-66
2023/06/12 10:50:40;;;;;;;3.45;1.70;;;;;;;24.53;34.86;102296.31;5111227;28;20039;-66
2023/06/12 10:53:11;;;;;;;5.57;1.52;;;;;;;24.40;35.18;102303.00;5121829;28;20069;-66
2023/06/12 10:55:37;;;;;;;2.47;1.55;;;;;;;24.21;36.87;102307.19;5121645;28;20027;-66
2023/06/12 10:58:05;;;;;;;7.13;1.65;;;;;;;24.29;36.80;102302.06;5120219;28;20027;-68
2023/06/12 11:00:36;;;;;;;4.63;1.73;;;;;;;24.49;36.10;102289.69;5120246;28;20085;-66
2023/06/12 11:03:12;;;;;;;3.75;1.40;;;;;;;24.31;36.43;102293.56;5121021;28;20123;-66
2023/06/12 11:05:45;;;;;;;6.22;1.67;;;;;;;24.11;37.21;102291.38;5120149;28;20035;-66
2023/06/12 11:08:10;;;;;;;5.07;1.50;;;;;;;23.95;37.41;102284.00;5117811;28;20341;-66
2023/06/12 11:10:36;;;;;;;4.47;1.60;;;;;;;23.95;36.57;102292.25;5116815;28;20055;-66
2023/06/12 11:13:02;;;;;;;2.38;1.50;;;;;;;24.03;36.27;102289.03;5115095;28;20376;-66
2023/06/12 11:15:32;;;;;;;4.20;1.50;;;;;;;24.04;35.14;102285.19;5096730;28;20116;-66
2023/06/12 11:17:58;;;;;;;5.00;1.60;;;;;;;24.14;35.25;102286.19;5116129;28;20031;-66
2023/06/12 11:20:23;;;;;;;5.47;1.48;;;;;;;24.22;33.94;102276.66;5116375;28;20041;-66
2023/06/12 11:22:58;;;;;;;5.03;1.70;;;;;;;24.17;34.47;102292.25;5115134;28;20027;-66
2023/06/12 11:25:25;;;;;;;5.80;1.60;;;;;;;23.94;35.02;102294.16;5120153;28;20027;-66